Nemencine, Lithuania
Current Conditions -  °F | °C
As of 7:50 AM on Friday 31 Oct 2014 (Local Time) from EYVI Reporting Station
Moderate Fog Moderate Fog  
Wind Chill: 39°   Ceiling: 300
Heat Index: 39°   Visibility: 0.12mi
Dew Point: 39°   Wind: 3mph
Humidity: 100%   Direction: 290°WNW
Pressure: 30.24"   Gusts: NA
Location:  54.85°N, 25.48°E
Report Text: EYVI 310450Z 29003KT 0200 R02/0650D FG VV003 04/04 Q1024 NOSIG
Loading
Personal Weather Stations






























Interactive Weather Map
Tropical Storm Tracking
New forecast layout! Learn more

10-Day Weather Forecast

Advertisements
Track Severe Weather on mobile